createdAt,value
2018-09-13T00:00:00.240Z,9.77
2018-09-13T00:02:28.817Z,10.07
2018-09-13T00:04:57.340Z,10.50
2018-09-13T00:07:25.866Z,9.27
2018-09-13T00:09:54.464Z,10.50
2018-09-13T00:12:22.989Z,10.20
2018-09-13T00:14:51.548Z,10.37
2018-09-13T00:17:20.078Z,10.10
2018-09-13T00:19:48.633Z,9.80
2018-09-13T00:22:17.788Z,9.80
2018-09-13T00:24:46.309Z,9.57
2018-09-13T00:27:14.848Z,9.63
2018-09-13T00:29:43.415Z,10.73
2018-09-13T00:32:11.914Z,9.50
2018-09-13T00:34:40.425Z,10.10
2018-09-13T00:37:08.982Z,9.83
2018-09-13T00:39:37.511Z,10.40
2018-09-13T00:42:06.056Z,9.43
2018-09-13T00:44:34.572Z,9.80
2018-09-13T00:47:03.161Z,9.27
2018-09-13T00:49:31.892Z,9.47
2018-09-13T00:52:00.388Z,9.30
2018-09-13T00:54:28.900Z,9.80
2018-09-13T00:56:57.604Z,9.33
2018-09-13T00:59:26.486Z,10.00
2018-09-13T01:01:55.020Z,10.10
2018-09-13T01:04:23.558Z,10.17
2018-09-13T01:06:52.085Z,10.57
2018-09-13T01:09:20.945Z,10.40
2018-09-13T01:11:49.472Z,9.90
2018-09-13T01:14:18.038Z,10.00
2018-09-13T01:16:46.590Z,10.37
2018-09-13T01:19:16.196Z,10.43
2018-09-13T01:21:44.807Z,10.00
2018-09-13T01:24:13.319Z,10.97
2018-09-13T01:26:42.255Z,10.90
2018-09-13T01:29:10.800Z,10.63
2018-09-13T01:31:39.589Z,10.53
2018-09-13T01:34:08.098Z,11.80
2018-09-13T01:36:36.642Z,11.90
2018-09-13T01:39:07.738Z,10.90
2018-09-13T01:41:36.560Z,11.40
2018-09-13T01:44:05.144Z,10.97
2018-09-13T01:46:33.689Z,10.63
2018-09-13T01:49:02.190Z,10.87
2018-09-13T01:51:31.044Z,10.73
2018-09-13T01:54:00.143Z,10.67
2018-09-13T01:56:28.647Z,11.17
2018-09-13T01:58:57.196Z,11.23
2018-09-13T02:01:25.752Z,10.67
2018-09-13T02:03:54.276Z,10.20
2018-09-13T02:06:22.777Z,10.23
2018-09-13T02:08:51.537Z,10.90
2018-09-13T02:11:20.092Z,10.90
2018-09-13T02:13:48.614Z,10.70
2018-09-13T02:16:17.170Z,11.47
2018-09-13T02:18:45.821Z,10.80
2018-09-13T02:21:14.401Z,10.93
2018-09-13T02:23:43.300Z,11.10
2018-09-13T02:26:11.856Z,10.93
2018-09-13T02:28:40.733Z,11.50
2018-09-13T02:31:09.265Z,11.00
2018-09-13T02:33:37.777Z,10.80
2018-09-13T02:36:06.359Z,11.73
2018-09-13T02:38:34.907Z,12.10
2018-09-13T02:41:03.516Z,11.00
2018-09-13T02:43:32.047Z,11.67
2018-09-13T02:46:00.565Z,13.23
2018-09-13T02:48:29.146Z,11.10
2018-09-13T02:50:57.688Z,12.03
2018-09-13T02:53:26.195Z,12.00
2018-09-13T02:55:54.732Z,11.50
2018-09-13T02:58:23.258Z,11.93
2018-09-13T03:00:51.784Z,12.93
2018-09-13T03:03:20.388Z,11.97
2018-09-13T03:05:48.924Z,12.53
2018-09-13T03:08:17.548Z,13.17
2018-09-13T03:10:46.270Z,13.40
2018-09-13T03:13:14.780Z,13.23
2018-09-13T03:15:43.289Z,14.10
2018-09-13T03:18:11.815Z,13.87
2018-09-13T03:20:40.390Z,13.47
2018-09-13T03:23:08.929Z,14.30
2018-09-13T03:25:37.432Z,14.87
2018-09-13T03:28:06.028Z,14.60
2018-09-13T03:30:34.600Z,16.30
2018-09-13T03:33:03.168Z,15.07
2018-09-13T03:35:31.804Z,15.47
2018-09-13T03:38:00.307Z,16.30
2018-09-13T03:40:28.837Z,16.70
2018-09-13T03:42:57.403Z,16.23
2018-09-13T03:45:26.084Z,15.83
2018-09-13T03:47:54.607Z,15.70
2018-09-13T03:50:23.128Z,17.27
2018-09-13T03:52:51.673Z,17.03
2018-09-13T03:55:20.240Z,16.43
2018-09-13T03:57:48.787Z,17.90
2018-09-13T04:00:17.293Z,17.03
2018-09-13T04:02:45.840Z,16.73
2018-09-13T04:05:14.560Z,17.33
2018-09-13T04:07:43.095Z,16.23
2018-09-13T04:10:11.632Z,17.07
2018-09-13T04:12:40.164Z,19.10
2018-09-13T04:15:08.799Z,18.03
2018-09-13T04:17:37.487Z,19.33
2018-09-13T04:20:06.047Z,18.93
2018-09-13T04:22:34.628Z,18.50
2018-09-13T04:25:03.170Z,19.03
2018-09-13T04:27:31.731Z,19.73
2018-09-13T04:30:00.256Z,19.60
2018-09-13T04:32:28.827Z,19.20
2018-09-13T04:34:57.372Z,19.83
2018-09-13T04:37:26.264Z,19.70
2018-09-13T04:39:54.784Z,20.37
2018-09-13T04:42:23.286Z,21.03
2018-09-13T04:44:51.831Z,20.27
2018-09-13T04:47:20.339Z,19.23
2018-09-13T04:49:49.613Z,20.73
2018-09-13T04:52:18.209Z,20.33
2018-09-13T04:54:46.732Z,18.87
2018-09-13T04:57:15.567Z,20.60
2018-09-13T04:59:44.138Z,21.20
2018-09-13T05:02:12.667Z,20.27
2018-09-13T05:04:41.188Z,21.57
2018-09-13T05:07:09.722Z,20.17
2018-09-13T05:09:38.257Z,18.53
2018-09-13T05:12:06.785Z,19.73
2018-09-13T05:14:35.316Z,18.53
2018-09-13T05:17:04.140Z,18.57
2018-09-13T05:19:32.639Z,19.90
2018-09-13T05:22:01.149Z,18.30
2018-09-13T05:24:29.888Z,16.53
2018-09-13T05:26:58.380Z,15.60
2018-09-13T05:29:26.931Z,15.53
2018-09-13T05:31:55.492Z,16.03
2018-09-13T05:34:24.058Z,16.23
2018-09-13T05:36:52.731Z,17.13
2018-09-13T05:39:21.284Z,16.63
2018-09-13T05:41:49.801Z,16.67
2018-09-13T05:44:18.347Z,17.47
2018-09-13T05:46:47.246Z,16.67
2018-09-13T05:49:15.756Z,15.77
2018-09-13T05:51:44.263Z,17.93
2018-09-13T05:54:12.800Z,18.90
2018-09-13T05:56:41.297Z,17.87
2018-09-13T05:59:09.815Z,16.97
2018-09-13T06:01:38.632Z,18.10
2018-09-13T06:04:07.151Z,18.33
2018-09-13T06:06:35.663Z,17.77
2018-09-13T06:09:05.342Z,16.33
2018-09-13T06:11:33.854Z,17.40
2018-09-13T06:14:02.409Z,17.13
2018-09-13T06:16:30.975Z,17.53
2018-09-13T06:18:59.487Z,17.00
2018-09-13T06:21:28.024Z,17.00
2018-09-13T06:23:56.584Z,17.67
2018-09-13T06:26:25.227Z,18.40
2018-09-13T06:28:53.801Z,17.33
2018-09-13T06:31:22.351Z,17.43
2018-09-13T06:33:50.900Z,15.93
2018-09-13T06:36:19.471Z,15.90
2018-09-13T06:38:48.022Z,17.47
2018-09-13T06:41:16.543Z,17.50
2018-09-13T06:43:45.059Z,17.60
2018-09-13T06:46:13.610Z,17.40
2018-09-13T06:48:42.515Z,18.07
2018-09-13T06:51:11.017Z,18.23
2018-09-13T06:53:39.526Z,17.90
2018-09-13T06:56:08.089Z,17.10
2018-09-13T06:58:36.877Z,17.70
2018-09-13T07:01:05.463Z,18.97
2018-09-13T07:03:34.014Z,19.30
2018-09-13T07:06:02.643Z,17.97
2018-09-13T07:08:31.160Z,18.70
2018-09-13T07:10:59.733Z,18.53
2018-09-13T07:13:28.296Z,18.90
2018-09-13T07:15:56.846Z,17.77
2018-09-13T07:18:25.376Z,17.83
2018-09-13T07:20:53.912Z,18.00
2018-09-13T07:23:22.417Z,17.53
2018-09-13T07:25:50.994Z,15.93
2018-09-13T07:28:19.502Z,16.43
2018-09-13T07:30:48.095Z,18.03
2018-09-13T07:33:16.580Z,18.23
2018-09-13T07:35:45.191Z,17.07
2018-09-13T07:38:14.374Z,17.43
2018-09-13T07:40:43.054Z,17.50
2018-09-13T07:43:11.761Z,18.30
2018-09-13T07:45:40.307Z,18.23
2018-09-13T07:48:08.897Z,17.30
2018-09-13T07:50:37.413Z,18.17
2018-09-13T07:53:06.173Z,18.07
2018-09-13T07:55:35.029Z,16.60
2018-09-13T07:58:03.607Z,15.70
2018-09-13T08:00:32.125Z,17.40
2018-09-13T08:03:00.680Z,16.33
2018-09-13T08:05:29.243Z,15.63
2018-09-13T08:07:57.913Z,16.53
2018-09-13T08:10:26.778Z,15.83
2018-09-13T08:12:55.294Z,13.40
2018-09-13T08:15:24.340Z,17.30
2018-09-13T08:17:53.126Z,16.30
2018-09-13T08:20:22.055Z,16.43
2018-09-13T08:22:50.726Z,16.85
2018-09-13T08:25:19.643Z,15.40
2018-09-13T08:27:48.677Z,15.43
2018-09-13T08:30:17.249Z,15.17
2018-09-13T08:32:45.759Z,13.80
2018-09-13T08:35:14.458Z,15.80
2018-09-13T08:37:42.953Z,13.70
2018-09-13T08:40:11.476Z,14.53
2018-09-13T08:42:40.299Z,14.70
2018-09-13T08:45:08.876Z,12.67
2018-09-13T08:47:37.448Z,14.17
2018-09-13T08:50:06.038Z,14.63
2018-09-13T08:52:34.563Z,14.00
2018-09-13T08:55:03.178Z,12.63
2018-09-13T08:57:31.660Z,14.30
2018-09-13T09:00:00.181Z,15.07
2018-09-13T09:02:28.748Z,13.80
2018-09-13T09:04:57.285Z,13.73
2018-09-13T09:07:25.836Z,14.50
2018-09-13T09:09:54.382Z,13.50
2018-09-13T09:12:22.890Z,11.87
2018-09-13T09:14:51.405Z,11.87
2018-09-13T09:17:20.201Z,13.43
2018-09-13T09:19:48.728Z,13.33
2018-09-13T09:22:17.250Z,12.83
2018-09-13T09:24:45.812Z,12.90
2018-09-13T09:27:14.338Z,14.10
2018-09-13T09:29:43.219Z,12.77
2018-09-13T09:32:11.913Z,13.43
2018-09-13T09:34:40.469Z,11.53
2018-09-13T09:37:09.023Z,12.73
2018-09-13T09:39:37.557Z,12.67
2018-09-13T09:42:06.177Z,11.90
2018-09-13T09:44:34.690Z,9.90
2018-09-13T09:47:03.208Z,12.93
2018-09-13T09:49:31.770Z,10.97
2018-09-13T09:52:00.574Z,12.10
2018-09-13T09:54:28.983Z,11.97
2018-09-13T09:56:57.531Z,11.00
2018-09-13T09:59:26.032Z,11.03
2018-09-13T10:01:59.874Z,12.80
2018-09-13T10:04:28.512Z,11.40
2018-09-13T10:06:57.684Z,11.20
2018-09-13T10:09:26.202Z,11.80
2018-09-13T10:11:54.984Z,10.97
2018-09-13T10:14:23.767Z,9.90
2018-09-13T10:16:57.669Z,11.30
2018-09-13T10:19:31.639Z,9.93
2018-09-13T10:22:12.456Z,11.33
2018-09-13T10:24:46.200Z,11.03
2018-09-13T10:27:19.952Z,10.33
2018-09-13T10:29:53.868Z,10.70
2018-09-13T10:32:27.677Z,12.07
2018-09-13T10:35:01.423Z,12.00
2018-09-13T10:37:35.287Z,10.77
2018-09-13T10:40:09.308Z,9.83
2018-09-13T10:42:43.125Z,9.90
2018-09-13T10:45:17.115Z,11.40
2018-09-13T10:47:56.920Z,9.63
2018-09-13T10:50:27.447Z,10.33
2018-09-13T10:53:00.074Z,10.83
2018-09-13T10:55:29.101Z,9.40
2018-09-13T10:57:57.693Z,10.53
2018-09-13T11:00:26.346Z,10.27
2018-09-13T11:02:54.974Z,10.20
2018-09-13T11:05:23.577Z,10.17
2018-09-13T11:07:52.130Z,9.07
2018-09-13T11:10:21.037Z,9.63
2018-09-13T11:12:53.128Z,10.20
2018-09-13T11:15:33.928Z,11.10
2018-09-13T11:18:03.610Z,9.77
2018-09-13T11:20:32.815Z,9.53
2018-09-13T11:23:01.434Z,9.70
2018-09-13T11:25:30.047Z,10.00
2018-09-13T11:27:58.848Z,9.13
2018-09-13T11:30:27.735Z,9.47
2018-09-13T11:32:56.266Z,9.17
2018-09-13T11:35:24.787Z,7.53
2018-09-13T11:37:53.328Z,8.50
2018-09-13T11:40:21.902Z,9.00
2018-09-13T11:42:50.449Z,9.23
2018-09-13T11:45:19.059Z,8.53
2018-09-13T11:47:47.610Z,8.97
2018-09-13T11:50:17.182Z,9.00
2018-09-13T11:52:45.683Z,7.85
2018-09-13T11:55:14.252Z,8.50
2018-09-13T11:57:42.792Z,7.83
2018-09-13T12:00:11.335Z,8.93
2018-09-13T12:02:39.869Z,8.40
2018-09-13T12:05:08.440Z,7.92
2018-09-13T12:07:36.956Z,8.25
2018-09-13T12:10:06.353Z,8.18
2018-09-13T12:12:34.880Z,6.92
2018-09-13T12:15:03.688Z,8.53
2018-09-13T12:17:32.304Z,7.67
2018-09-13T12:20:00.789Z,7.50
2018-09-13T12:22:29.393Z,7.70
2018-09-13T12:24:57.880Z,7.20
2018-09-13T12:27:26.480Z,7.80
2018-09-13T12:29:55.021Z,8.10
2018-09-13T12:32:23.555Z,7.58
2018-09-13T12:34:52.083Z,7.97
2018-09-13T12:37:20.610Z,7.80
2018-09-13T12:39:49.332Z,6.63
2018-09-13T12:42:17.843Z,7.80
2018-09-13T12:44:46.347Z,7.90
2018-09-13T12:47:14.972Z,7.60
2018-09-13T12:49:43.593Z,7.83
2018-09-13T12:52:12.455Z,6.70
2018-09-13T12:54:41.063Z,6.70
2018-09-13T12:57:09.691Z,7.00
2018-09-13T12:59:38.201Z,7.03
2018-09-13T13:02:06.713Z,6.83
2018-09-13T13:04:35.239Z,7.00
2018-09-13T13:07:04.111Z,7.00
2018-09-13T13:09:32.640Z,6.87
2018-09-13T13:12:01.168Z,7.60
2018-09-13T13:14:29.752Z,7.80
2018-09-13T13:16:58.589Z,7.93
2018-09-13T13:19:27.056Z,8.37
2018-09-13T13:21:55.612Z,8.07
2018-09-13T13:24:24.166Z,7.20
2018-09-13T13:26:52.714Z,7.20
2018-09-13T13:29:21.312Z,7.73
2018-09-13T13:31:49.816Z,7.23
2018-09-13T13:34:18.364Z,7.80
2018-09-13T13:36:46.889Z,8.77
2018-09-13T13:39:15.557Z,9.40
2018-09-13T13:41:44.454Z,9.60
2018-09-13T13:44:13.351Z,10.50
2018-09-13T13:46:42.035Z,9.57
2018-09-13T13:49:10.604Z,9.80
2018-09-13T13:51:40.179Z,10.93
2018-09-13T13:54:08.721Z,11.57
2018-09-13T13:56:37.276Z,13.20
2018-09-13T13:59:05.832Z,13.30
2018-09-13T14:01:35.429Z,13.17
2018-09-13T14:04:03.962Z,14.80
2018-09-13T14:06:32.476Z,15.77
2018-09-13T14:09:01.044Z,17.33
2018-09-13T14:11:29.885Z,18.63
2018-09-13T14:13:58.702Z,19.77
2018-09-13T14:16:27.354Z,22.17
2018-09-13T14:18:56.009Z,22.10
2018-09-13T14:21:24.518Z,23.50
2018-09-13T14:23:53.184Z,23.93
2018-09-13T14:26:21.875Z,18.37
2018-09-13T14:28:50.924Z,22.67
2018-09-13T14:31:19.692Z,24.13
2018-09-13T14:33:48.696Z,23.20
2018-09-13T14:36:17.589Z,22.90
2018-09-13T14:38:46.699Z,25.77
2018-09-13T14:41:15.434Z,22.73
2018-09-13T14:43:44.795Z,23.07
2018-09-13T14:46:13.685Z,22.37
2018-09-13T14:48:42.187Z,23.23
2018-09-13T14:51:11.130Z,22.13
2018-09-13T14:53:39.697Z,23.90
2018-09-13T14:56:09.198Z,22.53
2018-09-13T14:58:37.946Z,21.73
2018-09-13T15:01:06.844Z,21.30
2018-09-13T15:03:35.457Z,21.63
2018-09-13T15:06:04.017Z,21.40
2018-09-13T15:08:32.525Z,20.27
2018-09-13T15:11:01.099Z,19.17
2018-09-13T15:13:29.682Z,19.33
2018-09-13T15:15:58.291Z,19.03
2018-09-13T15:18:26.821Z,18.50
2018-09-13T15:20:55.324Z,18.20
2018-09-13T15:23:23.949Z,17.83
2018-09-13T15:25:52.490Z,18.07
2018-09-13T15:28:21.017Z,18.27
2018-09-13T15:30:49.710Z,21.10
2018-09-13T15:33:18.203Z,20.10
2018-09-13T15:35:46.748Z,19.97
2018-09-13T15:38:15.253Z,20.97
2018-09-13T15:40:43.825Z,20.40
2018-09-13T15:43:12.368Z,20.27
2018-09-13T15:45:40.896Z,20.40
2018-09-13T15:48:09.473Z,21.57
2018-09-13T15:50:37.993Z,21.23
2018-09-13T15:53:06.658Z,20.93
2018-09-13T15:55:35.206Z,19.63
2018-09-13T15:58:03.768Z,19.10
2018-09-13T16:00:32.551Z,19.20
2018-09-13T16:03:01.071Z,17.17
2018-09-13T16:05:30.487Z,18.30
2018-09-13T16:07:59.044Z,19.47
2018-09-13T16:10:27.587Z,18.90
2018-09-13T16:12:56.171Z,18.87
2018-09-13T16:15:24.701Z,20.10
2018-09-13T16:17:53.263Z,19.93
2018-09-13T16:20:21.788Z,20.13
2018-09-13T16:22:50.333Z,20.33
2018-09-13T16:25:18.916Z,21.40
2018-09-13T16:27:47.537Z,18.30
2018-09-13T16:30:16.060Z,21.30
2018-09-13T16:32:44.637Z,17.97
2018-09-13T16:35:13.289Z,18.10
2018-09-13T16:37:47.100Z,16.50
2018-09-13T16:40:20.851Z,16.47
2018-09-13T16:42:54.900Z,15.20
2018-09-13T16:45:30.872Z,15.33
2018-09-13T16:48:01.439Z,16.50
2018-09-13T16:50:30.065Z,14.13
2018-09-13T16:52:58.671Z,13.83
2018-09-13T16:55:27.286Z,12.90
2018-09-13T16:57:55.816Z,13.13
2018-09-13T17:00:25.374Z,13.63
2018-09-13T17:02:54.220Z,13.07
2018-09-13T17:05:22.975Z,12.47
2018-09-13T17:07:51.509Z,12.40
2018-09-13T17:10:20.037Z,12.50
2018-09-13T17:12:48.601Z,14.40
2018-09-13T17:15:17.901Z,12.80
2018-09-13T17:17:46.448Z,13.47
2018-09-13T17:20:15.057Z,14.53
2018-09-13T17:22:43.754Z,15.17
2018-09-13T17:25:12.319Z,15.83
2018-09-13T17:27:40.896Z,16.03
2018-09-13T17:30:09.766Z,17.30
2018-09-13T17:32:38.278Z,18.37
2018-09-13T17:35:06.896Z,19.37
2018-09-13T17:37:35.435Z,18.37
2018-09-13T17:40:04.025Z,17.47
2018-09-13T17:42:32.643Z,18.47
2018-09-13T17:45:01.197Z,19.63
2018-09-13T17:47:30.452Z,20.07
2018-09-13T17:49:59.676Z,21.20
2018-09-13T17:52:28.527Z,20.70
2018-09-13T17:54:57.056Z,20.93
2018-09-13T17:57:25.603Z,22.77
2018-09-13T17:59:54.145Z,23.93
2018-09-13T18:02:22.701Z,24.17
2018-09-13T18:04:51.269Z,22.03
2018-09-13T18:07:19.813Z,23.93
2018-09-13T18:09:48.382Z,24.13
2018-09-13T18:12:16.928Z,23.93
2018-09-13T18:14:45.559Z,23.23
2018-09-13T18:17:14.078Z,24.00
2018-09-13T18:19:42.664Z,22.13
2018-09-13T18:22:11.184Z,23.43
2018-09-13T18:24:39.746Z,24.00
2018-09-13T18:27:08.302Z,24.50
2018-09-13T18:29:36.846Z,24.00
2018-09-13T18:32:05.426Z,25.13
2018-09-13T18:34:34.003Z,25.47
2018-09-13T18:37:02.600Z,25.93
2018-09-13T18:39:31.858Z,25.27
2018-09-13T18:42:00.385Z,25.83
2018-09-13T18:44:28.937Z,26.07
2018-09-13T18:46:57.448Z,27.10
2018-09-13T18:49:26.152Z,27.17
2018-09-13T18:51:54.756Z,26.23
2018-09-13T18:54:23.413Z,28.33
2018-09-13T18:56:51.869Z,26.10
2018-09-13T18:59:20.407Z,23.67
2018-09-13T19:01:49.249Z,28.70
2018-09-13T19:04:17.816Z,30.10
2018-09-13T19:06:46.353Z,26.97
2018-09-13T19:09:14.883Z,26.70
2018-09-13T19:11:43.635Z,28.50
2018-09-13T19:14:12.164Z,28.87
2018-09-13T19:16:40.711Z,28.83
2018-09-13T19:19:09.267Z,28.63
2018-09-13T19:21:37.811Z,24.50
2018-09-13T19:24:06.610Z,24.20
2018-09-13T19:26:35.745Z,25.37
2018-09-13T19:29:04.289Z,26.00
2018-09-13T19:31:33.790Z,25.80
2018-09-13T19:34:02.353Z,24.97
2018-09-13T19:36:31.223Z,26.27
2018-09-13T19:38:59.748Z,28.33
2018-09-13T19:41:29.373Z,27.53
2018-09-13T19:43:57.890Z,26.27
2018-09-13T19:46:26.565Z,27.30
2018-09-13T19:48:55.160Z,28.90
2018-09-13T19:51:23.907Z,29.87
2018-09-13T19:53:52.422Z,27.53
2018-09-13T19:56:21.567Z,28.70
2018-09-13T19:58:50.109Z,28.90
2018-09-13T20:01:18.901Z,29.63
2018-09-13T20:03:47.524Z,29.47
2018-09-13T20:06:16.156Z,26.63
2018-09-13T20:08:44.728Z,25.70
2018-09-13T20:11:13.403Z,24.10
2018-09-13T20:13:41.977Z,28.50
2018-09-13T20:16:10.611Z,26.10
2018-09-13T20:18:39.516Z,24.70
2018-09-13T20:21:08.164Z,25.30
2018-09-13T20:23:36.713Z,26.17
2018-09-13T20:26:05.322Z,26.83
2018-09-13T20:28:34.503Z,26.70
2018-09-13T20:31:03.095Z,25.47
2018-09-13T20:33:31.852Z,27.13
2018-09-13T20:36:00.520Z,26.00
2018-09-13T20:38:29.043Z,23.30
2018-09-13T20:40:57.561Z,26.33
2018-09-13T20:43:26.171Z,26.87
2018-09-13T20:45:54.757Z,27.50
2018-09-13T20:48:23.295Z,24.40
2018-09-13T20:50:51.829Z,22.97
2018-09-13T20:53:20.490Z,23.10
2018-09-13T20:55:49.336Z,24.23
2018-09-13T20:58:17.964Z,22.97
2018-09-13T21:00:46.597Z,22.23
2018-09-13T21:03:15.366Z,23.30
2018-09-13T21:05:43.884Z,22.73
2018-09-13T21:08:12.471Z,23.37
2018-09-13T21:10:42.481Z,22.43
2018-09-13T21:13:11.024Z,21.13
2018-09-13T21:15:39.773Z,20.20
2018-09-13T21:18:08.312Z,19.77
2018-09-13T21:20:36.868Z,18.93
2018-09-13T21:23:06.315Z,15.40
2018-09-13T21:25:35.608Z,14.43
2018-09-13T21:28:04.208Z,14.33
2018-09-13T21:30:33.745Z,13.00
2018-09-13T21:33:03.630Z,13.50
2018-09-13T21:35:32.211Z,12.27
2018-09-13T21:38:00.777Z,12.30
2018-09-13T21:40:29.333Z,12.67
2018-09-13T21:42:58.297Z,12.90
2018-09-13T21:45:26.888Z,12.93
2018-09-13T21:47:55.424Z,13.93
2018-09-13T21:50:23.946Z,13.57
2018-09-13T21:52:52.531Z,14.13
2018-09-13T21:55:21.343Z,14.73
2018-09-13T21:57:49.920Z,15.33
2018-09-13T22:00:18.570Z,15.17
2018-09-13T22:02:47.120Z,14.70
2018-09-13T22:05:15.768Z,15.40
2018-09-13T22:10:35.019Z,16.57
2018-09-13T22:13:03.569Z,15.00
2018-09-13T22:15:32.124Z,15.47
2018-09-13T22:18:00.672Z,15.23
2018-09-13T22:20:29.218Z,16.00
2018-09-13T22:22:57.795Z,15.80
2018-09-13T22:25:26.332Z,16.00
2018-09-13T22:27:54.881Z,15.23
2018-09-13T22:30:23.558Z,13.50
2018-09-13T22:32:52.106Z,13.70
2018-09-13T22:35:20.618Z,14.33
2018-09-13T22:37:49.139Z,12.73
2018-09-13T22:40:17.688Z,13.37
2018-09-13T22:42:46.216Z,12.47
2018-09-13T22:45:14.755Z,13.60
2018-09-13T22:47:43.293Z,12.70
2018-09-13T22:50:11.916Z,13.03
2018-09-13T22:52:40.423Z,13.47
2018-09-13T22:55:09.471Z,14.03
2018-09-13T22:57:38.041Z,13.43
2018-09-13T23:00:06.850Z,15.67
2018-09-13T23:02:40.766Z,16.00
2018-09-13T23:05:09.342Z,15.57
2018-09-13T23:07:37.857Z,16.80
2018-09-13T23:10:06.432Z,16.97
2018-09-13T23:12:36.111Z,15.60
2018-09-13T23:15:04.725Z,15.20
2018-09-13T23:17:33.324Z,14.83
2018-09-13T23:20:01.828Z,14.33
2018-09-13T23:22:30.337Z,13.60
2018-09-13T23:24:59.035Z,13.20
2018-09-13T23:27:27.560Z,14.07
2018-09-13T23:29:56.118Z,12.03
2018-09-13T23:32:24.876Z,12.90
2018-09-13T23:34:53.432Z,13.23
2018-09-13T23:37:22.342Z,13.30
2018-09-13T23:39:51.019Z,13.93
2018-09-13T23:42:19.435Z,14.90
2018-09-13T23:44:47.959Z,15.43
2018-09-13T23:47:16.486Z,14.43
2018-09-13T23:49:45.016Z,15.20
2018-09-13T23:52:13.590Z,16.07
2018-09-13T23:54:42.291Z,16.30
2018-09-13T23:57:10.846Z,17.13
2018-09-13T23:59:39.411Z,16.83
